createdAt,value
2023-03-26T00:02:04.200Z,3.33
2023-03-26T00:04:33.667Z,3.70
2023-03-26T00:07:01.847Z,5.80
2023-03-26T00:09:30.461Z,3.70
2023-03-26T00:11:58.302Z,5.50
2023-03-26T00:14:26.911Z,5.87
2023-03-26T00:16:56.330Z,4.90
2023-03-26T00:19:24.187Z,9.60
2023-03-26T00:21:53.118Z,9.47
2023-03-26T00:24:20.840Z,9.33
2023-03-26T00:26:53.480Z,9.90
2023-03-26T00:29:22.850Z,16.43
2023-03-26T00:31:50.711Z,11.20
2023-03-26T00:34:20.743Z,11.37
2023-03-26T00:36:54.243Z,11.27
2023-03-26T00:39:23.861Z,20.03
2023-03-26T00:41:54.556Z,15.77
2023-03-26T00:44:23.000Z,20.57
2023-03-26T00:46:50.737Z,14.77
2023-03-26T00:49:19.917Z,17.60
2023-03-26T00:51:47.729Z,14.97
2023-03-26T00:54:15.689Z,15.13
2023-03-26T00:56:43.548Z,17.47
2023-03-26T00:59:11.681Z,17.10
2023-03-26T01:01:39.901Z,18.67
2023-03-26T01:04:31.223Z,17.40
2023-03-26T01:07:03.870Z,19.70
2023-03-26T01:09:37.516Z,20.90
2023-03-26T01:12:07.958Z,16.20
2023-03-26T01:14:36.086Z,14.67
2023-03-26T01:17:06.786Z,17.83
2023-03-26T01:19:44.811Z,17.00
2023-03-26T01:22:16.403Z,16.23
2023-03-26T01:24:48.644Z,21.50
2023-03-26T01:27:25.700Z,18.57
2023-03-26T01:29:55.679Z,22.13
2023-03-26T01:32:34.283Z,25.03
2023-03-26T01:35:15.612Z,18.23
2023-03-26T01:37:53.708Z,21.03
2023-03-26T01:40:28.202Z,20.60
2023-03-26T01:43:01.179Z,23.93
2023-03-26T01:45:33.046Z,17.17
2023-03-26T01:48:01.339Z,20.53
2023-03-26T01:50:29.426Z,21.30
2023-03-26T01:52:57.201Z,26.63
2023-03-26T01:55:34.121Z,18.60
2023-03-26T01:58:12.325Z,15.50
2023-03-26T02:00:48.123Z,16.70
2023-03-26T02:03:26.402Z,20.17
2023-03-26T02:06:00.449Z,19.50
2023-03-26T02:08:35.617Z,22.37
2023-03-26T02:11:11.493Z,23.37
2023-03-26T02:13:40.454Z,19.30
2023-03-26T02:16:14.123Z,20.23
2023-03-26T02:18:42.307Z,19.80
2023-03-26T02:21:12.910Z,22.40
2023-03-26T02:23:46.888Z,25.93
2023-03-26T02:26:18.190Z,24.90
2023-03-26T02:28:57.776Z,19.37
2023-03-26T02:31:26.484Z,23.63
2023-03-26T02:33:55.612Z,24.83
2023-03-26T02:36:27.243Z,19.97
2023-03-26T02:39:00.205Z,17.60
2023-03-26T02:41:31.389Z,20.80
2023-03-26T02:44:03.061Z,19.43
2023-03-26T02:46:53.874Z,23.17
2023-03-26T02:49:40.205Z,26.83
2023-03-26T02:52:08.202Z,25.87
2023-03-26T02:54:37.223Z,20.37
2023-03-26T02:57:23.724Z,22.97
2023-03-26T02:59:52.782Z,19.23
2023-03-26T03:02:47.983Z,25.87
2023-03-26T03:05:38.103Z,23.27
2023-03-26T03:08:31.018Z,25.40
2023-03-26T03:11:15.947Z,20.67
2023-03-26T03:13:47.286Z,24.07
2023-03-26T03:16:26.708Z,21.00
2023-03-26T03:18:57.843Z,26.00
2023-03-26T03:21:31.674Z,21.57
2023-03-26T03:24:00.054Z,20.43
2023-03-26T03:26:30.644Z,21.93
2023-03-26T03:29:05.117Z,24.63
2023-03-26T03:31:33.139Z,20.10
2023-03-26T03:34:05.003Z,27.93
2023-03-26T03:36:38.522Z,23.57
2023-03-26T03:39:25.084Z,19.27
2023-03-26T03:41:52.952Z,24.77
2023-03-26T03:44:22.120Z,21.63
2023-03-26T03:46:53.961Z,20.87
2023-03-26T03:49:22.472Z,26.30
2023-03-26T03:51:50.265Z,22.23
2023-03-26T03:54:29.226Z,18.03
2023-03-26T03:57:08.759Z,18.60
2023-03-26T03:59:52.176Z,22.77
2023-03-26T04:02:26.137Z,24.50
2023-03-26T04:04:58.563Z,18.93
2023-03-26T04:07:26.888Z,25.97
2023-03-26T04:10:08.220Z,18.60
2023-03-26T04:13:08.163Z,17.53
2023-03-26T04:16:10.500Z,20.13
2023-03-26T04:18:39.131Z,16.80
2023-03-26T04:21:15.838Z,26.77
2023-03-26T04:23:45.243Z,17.53
2023-03-26T04:26:42.473Z,21.33
2023-03-26T04:29:16.976Z,22.77
2023-03-26T04:31:47.036Z,23.03
2023-03-26T04:34:24.299Z,21.73
2023-03-26T04:37:18.959Z,20.77
2023-03-26T04:39:54.371Z,21.83
2023-03-26T04:42:37.610Z,15.37
2023-03-26T04:45:14.005Z,20.63
2023-03-26T04:47:46.379Z,20.87
2023-03-26T04:50:14.483Z,23.43
2023-03-26T04:52:45.103Z,23.70
2023-03-26T04:55:26.347Z,22.53
2023-03-26T04:58:05.881Z,17.10
2023-03-26T05:00:57.229Z,17.13
2023-03-26T05:03:31.150Z,20.00
2023-03-26T05:06:03.364Z,19.87
2023-03-26T05:08:31.286Z,16.87
2023-03-26T05:10:59.249Z,20.60
2023-03-26T05:13:36.301Z,14.57
2023-03-26T05:16:09.844Z,19.73
2023-03-26T05:18:54.045Z,19.40
2023-03-26T05:21:22.792Z,20.13
2023-03-26T05:23:50.969Z,20.53
2023-03-26T05:26:20.651Z,22.43
2023-03-26T05:28:49.005Z,24.33
2023-03-26T05:31:22.386Z,17.97
2023-03-26T05:33:55.040Z,18.13
2023-03-26T05:36:22.997Z,18.07
2023-03-26T05:39:02.219Z,16.07
2023-03-26T05:41:50.342Z,19.80
2023-03-26T05:44:19.256Z,15.83
2023-03-26T05:46:47.227Z,15.37
2023-03-26T05:49:23.126Z,18.60
2023-03-26T05:51:51.025Z,14.97
2023-03-26T05:54:33.171Z,13.50
2023-03-26T05:57:23.992Z,17.97
2023-03-26T06:00:12.203Z,17.57
2023-03-26T06:02:46.777Z,17.80
2023-03-26T06:05:37.238Z,21.07
2023-03-26T06:08:20.572Z,14.97
2023-03-26T06:10:51.784Z,14.73
2023-03-26T06:13:19.538Z,15.30
2023-03-26T06:15:49.723Z,14.50
2023-03-26T06:18:38.698Z,17.50
2023-03-26T06:21:28.779Z,17.43
2023-03-26T06:24:06.456Z,15.07
2023-03-26T06:26:53.322Z,18.13
2023-03-26T06:29:59.536Z,13.43
2023-03-26T06:32:38.999Z,16.43
2023-03-26T06:35:13.961Z,13.53
2023-03-26T06:37:43.217Z,17.50
2023-03-26T06:40:12.736Z,19.33
2023-03-26T06:43:07.906Z,12.17
2023-03-26T06:45:57.815Z,13.07
2023-03-26T06:48:54.568Z,12.23
2023-03-26T06:52:02.827Z,12.30
2023-03-26T06:54:44.255Z,13.73
2023-03-26T06:57:30.415Z,14.00
2023-03-26T07:00:33.638Z,13.40
2023-03-26T07:03:20.221Z,13.77
2023-03-26T07:06:07.249Z,15.23
2023-03-26T07:08:55.351Z,16.67
2023-03-26T07:11:47.153Z,14.52
2023-03-26T07:14:33.324Z,14.67
2023-03-26T07:17:10.808Z,13.50
2023-03-26T07:19:48.894Z,8.32
2023-03-26T07:22:22.976Z,12.27
2023-03-26T07:25:07.868Z,14.13
2023-03-26T07:28:11.589Z,12.00
2023-03-26T07:31:02.069Z,12.73
2023-03-26T07:33:53.779Z,12.30
2023-03-26T07:36:45.395Z,12.70
2023-03-26T07:39:44.701Z,16.97
2023-03-26T07:42:35.354Z,12.20
2023-03-26T07:45:39.638Z,13.25
2023-03-26T07:48:21.563Z,11.85
2023-03-26T07:51:09.234Z,11.63
2023-03-26T07:53:50.670Z,11.40
2023-03-26T07:56:43.877Z,14.07
2023-03-26T07:59:40.483Z,13.93
2023-03-26T08:03:04.849Z,11.25
2023-03-26T08:06:04.394Z,15.05
2023-03-26T08:09:01.190Z,13.90
2023-03-26T08:12:02.362Z,11.55
2023-03-26T08:14:46.172Z,13.57
2023-03-26T08:17:16.181Z,12.85
2023-03-26T08:20:05.830Z,9.63
2023-03-26T08:22:37.352Z,11.80
2023-03-26T08:25:20.433Z,27.77
2023-03-26T08:27:55.806Z,16.17
2023-03-26T08:30:26.122Z,15.32
2023-03-26T08:32:56.729Z,10.00
2023-03-26T08:35:27.228Z,12.68
2023-03-26T08:37:55.291Z,12.65
2023-03-26T08:40:46.195Z,11.90
2023-03-26T08:43:38.601Z,13.75
2023-03-26T08:46:22.377Z,12.05
2023-03-26T08:49:36.545Z,8.90
2023-03-26T08:52:45.445Z,14.85
2023-03-26T08:55:30.250Z,11.00
2023-03-26T08:58:53.936Z,11.82
2023-03-26T09:02:12.776Z,11.70
2023-03-26T09:05:13.448Z,12.15
2023-03-26T09:07:59.912Z,9.55
2023-03-26T09:11:13.818Z,9.07
2023-03-26T09:14:07.184Z,11.85
2023-03-26T09:17:21.954Z,12.98
2023-03-26T09:20:13.936Z,12.25
2023-03-26T09:22:57.899Z,14.10
2023-03-26T09:25:57.599Z,11.87
2023-03-26T09:28:59.671Z,13.57
2023-03-26T09:31:57.163Z,12.38
2023-03-26T09:34:31.147Z,10.32
2023-03-26T09:37:15.166Z,11.20
2023-03-26T09:39:58.045Z,13.77
2023-03-26T09:42:38.503Z,13.00
2023-03-26T09:45:31.584Z,13.88
2023-03-26T09:48:29.198Z,11.70
2023-03-26T09:51:13.656Z,12.75
2023-03-26T09:54:29.365Z,9.43
2023-03-26T09:57:11.966Z,8.30
2023-03-26T10:00:00.376Z,8.65
2023-03-26T10:02:53.205Z,11.18
2023-03-26T10:05:53.587Z,11.35
2023-03-26T10:08:37.902Z,10.82
2023-03-26T10:11:12.362Z,10.15
2023-03-26T10:13:54.895Z,10.68
2023-03-26T10:16:33.113Z,8.63
2023-03-26T10:19:16.816Z,10.48
2023-03-26T10:21:51.127Z,10.93
2023-03-26T10:24:36.402Z,10.90
2023-03-26T10:27:25.198Z,10.85
2023-03-26T10:30:19.041Z,8.20
2023-03-26T10:32:58.881Z,10.27
2023-03-26T10:35:40.677Z,12.43
2023-03-26T10:38:17.009Z,14.05
2023-03-26T10:40:59.713Z,9.50
2023-03-26T10:44:08.046Z,11.23
2023-03-26T10:46:59.510Z,10.98
2023-03-26T10:49:52.271Z,11.30
2023-03-26T10:52:23.679Z,7.72
2023-03-26T10:54:57.047Z,11.85
2023-03-26T10:57:35.207Z,10.80
2023-03-26T11:00:15.409Z,7.28
2023-03-26T11:02:55.669Z,7.63
2023-03-26T11:05:45.588Z,7.15
2023-03-26T11:08:20.870Z,6.88
2023-03-26T11:11:06.162Z,7.43
2023-03-26T11:13:47.264Z,5.25
2023-03-26T11:16:22.944Z,6.50
2023-03-26T11:19:00.429Z,6.88
2023-03-26T11:21:36.355Z,5.72
2023-03-26T11:24:38.820Z,6.75
2023-03-26T11:27:16.482Z,6.13
2023-03-26T11:29:57.718Z,5.72
2023-03-26T11:32:31.260Z,6.72
2023-03-26T11:35:08.069Z,8.13
2023-03-26T11:37:42.873Z,5.47
2023-03-26T11:40:15.940Z,6.68
2023-03-26T11:42:44.916Z,4.32
2023-03-26T11:45:19.377Z,5.68
2023-03-26T11:47:51.624Z,3.20
2023-03-26T11:50:24.960Z,4.32
2023-03-26T11:52:54.481Z,3.08
2023-03-26T11:55:23.792Z,3.75
2023-03-26T11:57:56.462Z,1.60
2023-03-26T12:00:27.502Z,1.60
2023-03-26T12:02:58.909Z,1.98
2023-03-26T12:05:36.577Z,2.20
2023-03-26T12:08:18.736Z,2.67
2023-03-26T12:10:59.467Z,4.33
2023-03-26T12:13:34.451Z,2.20
2023-03-26T12:16:08.388Z,3.00
2023-03-26T12:18:41.185Z,1.88
2023-03-26T12:21:12.766Z,2.78
2023-03-26T12:23:51.631Z,2.97
2023-03-26T12:26:21.138Z,9.73
2023-03-26T12:28:51.350Z,3.63
2023-03-26T12:31:20.470Z,2.88
2023-03-26T12:34:07.551Z,1.50
2023-03-26T12:36:38.942Z,1.92
2023-03-26T12:40:11.854Z,2.17
2023-03-26T12:44:48.857Z,2.35
2023-03-26T12:45:16.267Z,1.42
2023-03-26T12:48:01.409Z,1.60
2023-03-26T12:50:46.179Z,0.80
2023-03-26T12:53:41.951Z,1.20
2023-03-26T12:56:21.612Z,0.57
2023-03-26T12:59:19.550Z,1.02
2023-03-26T13:01:59.436Z,1.20
2023-03-26T13:05:06.007Z,1.15
2023-03-26T13:07:48.212Z,0.85
2023-03-26T13:10:37.110Z,1.02
2023-03-26T13:13:21.572Z,2.22
2023-03-26T13:15:53.573Z,0.47
2023-03-26T13:18:45.074Z,1.05
2023-03-26T13:21:20.434Z,0.43
2023-03-26T13:23:55.523Z,0.50
2023-03-26T13:26:38.939Z,1.50
2023-03-26T13:29:18.066Z,2.05
2023-03-26T13:31:54.144Z,0.57
2023-03-26T13:34:31.242Z,0.50
2023-03-26T13:37:10.525Z,0.75
2023-03-26T13:39:51.057Z,0.52
2023-03-26T13:42:37.839Z,0.63
2023-03-26T13:45:18.360Z,0.90
2023-03-26T13:47:50.111Z,0.77
2023-03-26T13:50:25.098Z,0.70
2023-03-26T13:52:58.668Z,1.60
2023-03-26T13:55:31.438Z,0.32
2023-03-26T13:58:05.248Z,0.63
2023-03-26T14:00:48.815Z,0.80
2023-03-26T14:03:22.731Z,0.82
2023-03-26T14:05:55.444Z,0.90
2023-03-26T14:08:31.156Z,1.88
2023-03-26T14:11:07.684Z,1.30
2023-03-26T14:13:44.599Z,0.80
2023-03-26T14:16:18.648Z,1.17
2023-03-26T14:18:53.266Z,1.33
2023-03-26T14:21:41.638Z,1.48
2023-03-26T14:24:44.895Z,1.40
2023-03-26T14:27:25.750Z,1.55
2023-03-26T14:30:14.746Z,1.65
2023-03-26T14:32:55.049Z,2.45
2023-03-26T14:35:35.593Z,1.30
2023-03-26T14:38:33.844Z,1.25
2023-03-26T14:41:16.712Z,0.70
2023-03-26T14:44:17.286Z,2.05
2023-03-26T14:46:58.126Z,0.93
2023-03-26T14:49:51.719Z,2.25
2023-03-26T14:52:27.357Z,0.85
2023-03-26T14:54:58.523Z,2.38
2023-03-26T14:57:49.365Z,1.35
2023-03-26T15:00:48.897Z,2.03
2023-03-26T15:03:52.507Z,1.75
2023-03-26T15:07:04.377Z,2.75
2023-03-26T15:10:10.042Z,2.00
2023-03-26T15:12:49.543Z,1.90
2023-03-26T15:15:44.997Z,2.03
2023-03-26T15:18:58.215Z,2.90
2023-03-26T15:22:07.532Z,2.35
2023-03-26T15:25:11.180Z,1.13
2023-03-26T15:27:51.960Z,1.15
2023-03-26T15:31:10.752Z,1.50
2023-03-26T15:34:09.712Z,1.95
2023-03-26T15:37:22.072Z,0.90
2023-03-26T15:40:24.656Z,1.10
2023-03-26T15:43:02.466Z,1.83
2023-03-26T15:45:37.004Z,1.42
2023-03-26T15:48:19.310Z,1.50
2023-03-26T15:50:55.777Z,1.52
2023-03-26T15:53:41.342Z,0.93
2023-03-26T15:56:20.466Z,1.27
2023-03-26T15:58:58.010Z,1.73
2023-03-26T16:01:40.240Z,4.32
2023-03-26T16:04:19.154Z,4.43
2023-03-26T16:07:02.885Z,3.25
2023-03-26T16:09:46.846Z,3.53
2023-03-26T16:12:29.551Z,3.40
2023-03-26T16:15:30.747Z,2.07
2023-03-26T16:18:22.665Z,3.30
2023-03-26T16:20:53.988Z,4.40
2023-03-26T16:23:30.535Z,3.20
2023-03-26T16:26:12.751Z,3.07
2023-03-26T16:29:03.920Z,3.33
2023-03-26T16:31:38.040Z,4.83
2023-03-26T16:34:29.259Z,2.83
2023-03-26T16:37:00.308Z,3.77
2023-03-26T16:39:42.548Z,3.13
2023-03-26T16:42:38.668Z,4.97
2023-03-26T16:45:22.879Z,5.13
2023-03-26T16:48:01.948Z,5.60
2023-03-26T16:50:41.447Z,5.50
2023-03-26T16:53:24.118Z,6.13
2023-03-26T16:55:58.649Z,11.40
2023-03-26T16:58:35.829Z,13.23
2023-03-26T17:01:09.573Z,18.17
2023-03-26T17:03:47.830Z,16.90
2023-03-26T17:06:34.894Z,16.97
2023-03-26T17:09:17.504Z,15.70
2023-03-26T17:11:57.694Z,19.17
2023-03-26T17:14:36.131Z,15.27
2023-03-26T17:17:24.417Z,16.00
2023-03-26T17:19:59.975Z,17.73
2023-03-26T17:22:38.013Z,18.70
2023-03-26T17:25:33.593Z,16.17
2023-03-26T17:28:32.189Z,18.13
2023-03-26T17:31:06.610Z,18.43
2023-03-26T17:33:36.724Z,16.80
2023-03-26T17:36:44.089Z,17.17
2023-03-26T17:40:12.179Z,15.13
2023-03-26T17:42:40.140Z,17.23
2023-03-26T17:45:18.504Z,13.60
2023-03-26T17:47:52.323Z,16.37
2023-03-26T17:50:23.784Z,16.00
2023-03-26T17:52:57.595Z,11.23
2023-03-26T17:55:30.897Z,11.03
2023-03-26T17:58:00.855Z,12.63
2023-03-26T18:00:33.860Z,12.10
2023-03-26T18:03:06.314Z,11.20
2023-03-26T18:05:35.824Z,12.57
2023-03-26T18:08:33.867Z,15.10
2023-03-26T18:11:12.328Z,12.50
2023-03-26T18:13:54.667Z,11.17
2023-03-26T18:16:28.239Z,15.37
2023-03-26T18:18:59.971Z,19.17
2023-03-26T18:21:33.788Z,12.33
2023-03-26T18:24:03.068Z,16.07
2023-03-26T18:26:38.576Z,12.87
2023-03-26T18:29:22.441Z,13.43
2023-03-26T18:31:57.600Z,10.83
2023-03-26T18:34:26.941Z,10.03
2023-03-26T18:37:14.781Z,12.83
2023-03-26T18:39:42.940Z,13.30
2023-03-26T18:42:22.602Z,12.20
2023-03-26T18:44:53.152Z,14.10
2023-03-26T18:47:23.467Z,12.17
2023-03-26T18:49:57.117Z,13.13
2023-03-26T18:52:25.216Z,9.83
2023-03-26T18:54:55.066Z,12.57
2023-03-26T18:57:25.894Z,15.87
2023-03-26T18:59:55.863Z,13.30
2023-03-26T19:02:26.690Z,15.27
2023-03-26T19:04:56.812Z,12.07
2023-03-26T19:07:27.196Z,12.40
2023-03-26T19:09:56.673Z,11.50
2023-03-26T19:12:29.026Z,13.20
2023-03-26T19:15:03.447Z,9.20
2023-03-26T19:17:36.187Z,14.50
2023-03-26T19:20:07.605Z,12.47
2023-03-26T19:22:35.796Z,11.17
2023-03-26T19:25:04.609Z,17.20
2023-03-26T19:27:32.877Z,13.50
2023-03-26T19:30:00.673Z,13.03
2023-03-26T19:32:34.446Z,9.77
2023-03-26T19:35:04.440Z,10.10
2023-03-26T19:37:33.176Z,11.23
2023-03-26T19:40:07.678Z,15.77
2023-03-26T19:42:43.766Z,10.30
2023-03-26T19:45:17.124Z,11.20
2023-03-26T19:47:50.495Z,11.80
2023-03-26T19:50:27.163Z,11.00
2023-03-26T19:53:18.800Z,10.80
2023-03-26T19:55:58.841Z,9.60
2023-03-26T19:58:27.212Z,11.60
2023-03-26T20:00:56.228Z,12.30
2023-03-26T20:03:29.375Z,10.27
2023-03-26T20:05:57.423Z,11.70
2023-03-26T20:08:27.065Z,12.13
2023-03-26T20:10:56.696Z,13.23
2023-03-26T20:13:24.866Z,13.33
2023-03-26T20:16:05.517Z,12.03
2023-03-26T20:18:35.665Z,11.73
2023-03-26T20:21:09.782Z,11.70
2023-03-26T20:23:37.541Z,12.30
2023-03-26T20:26:05.379Z,11.77
2023-03-26T20:28:42.173Z,12.63
2023-03-26T20:31:19.240Z,8.67
2023-03-26T20:33:49.281Z,12.30
2023-03-26T20:36:33.214Z,12.67
2023-03-26T20:39:05.613Z,11.27
2023-03-26T20:41:35.168Z,8.30
2023-03-26T20:44:04.799Z,14.53
2023-03-26T20:46:33.104Z,11.63
2023-03-26T20:49:02.316Z,8.53
2023-03-26T20:51:30.115Z,12.10
2023-03-26T20:53:58.060Z,12.50
2023-03-26T20:56:25.767Z,10.80
2023-03-26T20:59:09.685Z,14.13
2023-03-26T21:01:39.142Z,16.37
2023-03-26T21:04:08.447Z,14.83
2023-03-26T21:06:37.060Z,13.43
2023-03-26T21:09:05.621Z,11.57
2023-03-26T21:11:46.121Z,9.77
2023-03-26T21:14:19.556Z,12.20
2023-03-26T21:16:48.216Z,8.43
2023-03-26T21:19:18.190Z,12.13
2023-03-26T21:21:59.041Z,7.40
2023-03-26T21:24:36.921Z,10.57
2023-03-26T21:27:12.917Z,9.77
2023-03-26T21:29:41.134Z,10.80
2023-03-26T21:32:11.086Z,11.63
2023-03-26T21:34:47.829Z,8.27
2023-03-26T21:37:24.498Z,10.40
2023-03-26T21:39:52.781Z,8.53
2023-03-26T21:42:21.207Z,12.80
2023-03-26T21:44:49.699Z,9.10
2023-03-26T21:47:17.850Z,11.30
2023-03-26T21:49:47.668Z,11.40
2023-03-26T21:52:15.825Z,11.20
2023-03-26T21:54:44.183Z,10.53
2023-03-26T21:57:39.768Z,14.60
2023-03-26T22:00:14.863Z,14.00
2023-03-26T22:02:56.207Z,7.93
2023-03-26T22:05:33.479Z,9.20
2023-03-26T22:08:03.056Z,10.33
2023-03-26T22:10:31.936Z,10.07
2023-03-26T22:13:00.352Z,8.10
2023-03-26T22:15:30.473Z,7.30
2023-03-26T22:18:01.549Z,11.83
2023-03-26T22:20:30.600Z,8.27
2023-03-26T22:22:58.901Z,9.03
2023-03-26T22:25:27.519Z,13.77
2023-03-26T22:27:55.401Z,12.27
2023-03-26T22:30:23.165Z,13.33
2023-03-26T22:32:51.696Z,14.23
2023-03-26T22:35:19.830Z,13.47
2023-03-26T22:37:48.909Z,12.00
2023-03-26T22:40:17.889Z,14.70
2023-03-26T22:42:45.912Z,8.67
2023-03-26T22:45:14.038Z,12.40
2023-03-26T22:47:42.110Z,11.47
2023-03-26T22:50:11.794Z,12.97
2023-03-26T22:52:40.654Z,14.87
2023-03-26T22:55:11.030Z,12.20
2023-03-26T22:57:38.977Z,12.57
2023-03-26T23:00:14.365Z,9.27
2023-03-26T23:02:44.695Z,12.80
2023-03-26T23:05:13.156Z,14.87
2023-03-26T23:07:42.554Z,12.63
2023-03-26T23:10:12.143Z,13.17
2023-03-26T23:12:40.092Z,16.10
2023-03-26T23:15:09.746Z,9.87
2023-03-26T23:17:38.309Z,8.57
2023-03-26T23:20:14.609Z,13.83
2023-03-26T23:22:43.650Z,10.50
2023-03-26T23:25:13.113Z,11.73
2023-03-26T23:27:41.423Z,18.40
2023-03-26T23:30:11.776Z,13.17
2023-03-26T23:32:40.663Z,11.70
2023-03-26T23:35:08.988Z,11.87
2023-03-26T23:37:36.838Z,8.97
2023-03-26T23:40:09.804Z,12.03
2023-03-26T23:42:39.214Z,15.80
2023-03-26T23:45:08.663Z,13.83
2023-03-26T23:47:37.288Z,14.27
2023-03-26T23:50:06.776Z,13.93
2023-03-26T23:52:34.723Z,16.27
2023-03-26T23:55:02.449Z,15.50
2023-03-26T23:57:30.495Z,14.47
2023-03-26T23:59:59.638Z,18.80
